Time;durP1;ratioP1;P1;durP2;ratioP2;P2;SDS_P1;SDS_P2;PMS_P1;PMS_P2;Temp;Humidity;BMP_temperature;BMP_pressure;BME280_temperature;BME280_humidity;BME280_pressure;Samples;Min_cycle;Max_cycle;Signal;HPM_P1;HPM_P2
2021/11/12 00:02:19;;;;;;;19.48;9.50;;;;;;;7.69;100.00;102048.41;6201831;28;20054;-69
2021/11/12 00:12:26;;;;;;;21.05;10.10;;;;;;;7.67;100.00;102043.19;6200661;28;20046;-69
2021/11/12 00:15:28;;;;;;;26.27;8.98;;;;;;;7.69;100.00;102045.78;6191853;28;20093;-69
2021/11/12 00:18:32;;;;;;;29.08;9.18;;;;;;;7.63;100.00;102047.66;6201567;28;20053;-69
2021/11/12 00:21:33;;;;;;;32.85;8.10;;;;;;;7.65;100.00;102044.13;6201322;28;20054;-69
2021/11/12 00:24:35;;;;;;;21.50;8.98;;;;;;;7.68;100.00;102044.94;6201662;28;20513;-69
2021/11/12 00:27:38;;;;;;;20.42;6.95;;;;;;;7.69;100.00;102040.56;6200278;28;20051;-69
2021/11/12 00:30:51;;;;;;;18.55;7.18;;;;;;;7.71;100.00;102033.53;6201048;28;20047;-68
2021/11/12 00:37:20;;;;;;;20.10;8.20;;;;;;;7.75;100.00;102025.59;6197206;28;20085;-69
2021/11/12 00:40:25;;;;;;;22.40;9.00;;;;;;;7.74;100.00;102021.25;6182646;28;20494;-69
2021/11/12 00:43:34;;;;;;;22.40;7.53;;;;;;;7.67;100.00;102029.25;6201537;28;20101;-69
2021/11/12 00:46:38;;;;;;;17.75;7.60;;;;;;;7.67;100.00;102019.63;6200840;28;20116;-69
2021/11/12 00:49:43;;;;;;;14.55;6.75;;;;;;;7.68;100.00;102015.31;6200640;28;20050;-68
2021/11/12 00:53:41;;;;;;;22.75;8.13;;;;;;;7.71;100.00;102023.91;6197464;28;20061;-69
2021/11/12 00:56:07;;;;;;;30.10;9.43;;;;;;;7.71;100.00;102018.69;6200386;28;20201;-69
2021/11/12 00:59:08;;;;;;;24.63;9.10;;;;;;;7.63;100.00;102024.09;6200605;28;20046;-69
2021/11/12 01:02:10;;;;;;;24.73;8.95;;;;;;;7.63;100.00;102018.00;6200519;28;20050;-69
2021/11/12 01:05:13;;;;;;;20.42;7.35;;;;;;;7.64;100.00;102027.56;6200462;28;20054;-69
2021/11/12 01:08:14;;;;;;;20.27;8.18;;;;;;;7.62;100.00;102031.97;6200440;28;20529;-69
2021/11/12 01:11:17;;;;;;;20.33;8.73;;;;;;;7.65;100.00;102033.66;6199420;28;20046;-69
2021/11/12 01:14:21;;;;;;;15.65;7.47;;;;;;;7.67;100.00;102039.72;6200506;28;20060;-69
2021/11/12 01:17:23;;;;;;;15.57;6.43;;;;;;;7.65;100.00;102034.53;6200410;28;20057;-69
2021/11/12 01:20:26;;;;;;;16.10;6.93;;;;;;;7.66;100.00;102035.38;6199930;28;20058;-69
2021/11/12 01:23:28;;;;;;;18.83;7.85;;;;;;;7.67;100.00;102032.72;6200307;28;20050;-69
2021/11/12 01:26:30;;;;;;;20.35;8.50;;;;;;;7.66;100.00;102035.38;6199990;28;20050;-69
2021/11/12 01:29:31;;;;;;;20.70;8.50;;;;;;;7.68;100.00;102028.38;6199930;28;20137;-69
2021/11/12 01:32:33;;;;;;;18.48;6.88;;;;;;;7.68;100.00;102023.16;6199849;28;20090;-69
2021/11/12 01:35:37;;;;;;;17.67;6.93;;;;;;;7.67;100.00;102026.63;6199926;28;20050;-69
2021/11/12 01:38:38;;;;;;;27.05;7.75;;;;;;;7.68;100.00;102025.75;6199664;28;20072;-69
2021/11/12 01:41:45;;;;;;;22.17;8.23;;;;;;;7.66;100.00;102024.91;6199216;28;20051;-69
2021/11/12 01:44:50;;;;;;;17.90;6.45;;;;;;;7.61;100.00;102015.41;6199735;28;20054;-69
2021/11/12 01:48:00;;;;;;;20.00;7.68;;;;;;;7.62;100.00;102018.88;6199502;28;20453;-69
2021/11/12 01:51:07;;;;;;;20.75;7.18;;;;;;;7.61;100.00;102018.03;6199324;28;20214;-69
2021/11/12 01:54:23;;;;;;;12.65;7.18;;;;;;;7.60;100.00;102010.22;6199735;28;20050;-69
2021/11/12 01:57:32;;;;;;;22.52;7.80;;;;;;;7.61;100.00;102014.53;6199344;28;20513;-69
2021/11/12 02:00:33;;;;;;;18.77;7.15;;;;;;;7.63;100.00;102002.31;6198403;28;20104;-69
2021/11/12 02:03:34;;;;;;;13.77;7.35;;;;;;;7.63;100.00;101991.84;6199313;28;20192;-69
2021/11/12 02:06:38;;;;;;;14.23;6.95;;;;;;;7.61;100.00;101989.25;6199630;28;20079;-69
2021/11/12 02:09:40;;;;;;;13.73;6.75;;;;;;;7.59;100.00;101982.34;6199092;28;20053;-69
2021/11/12 02:12:51;;;;;;;19.70;7.80;;;;;;;7.57;100.00;101978.88;6198015;28;20058;-68
2021/11/12 02:15:53;;;;;;;24.95;7.13;;;;;;;7.57;100.00;101978.88;6198791;28;20042;-69
2021/11/12 02:18:56;;;;;;;16.38;7.20;;;;;;;7.55;100.00;101978.06;6198996;28;20501;-69
2021/11/12 02:22:07;;;;;;;19.35;8.48;;;;;;;7.55;100.00;101978.06;6198708;28;20061;-69
2021/11/12 02:25:12;;;;;;;18.35;7.10;;;;;;;7.54;100.00;101973.69;6198711;28;20043;-68
2021/11/12 02:28:15;;;;;;;17.15;7.25;;;;;;;7.54;100.00;101973.69;6198713;28;20126;-69
2021/11/12 02:31:16;;;;;;;16.02;6.70;;;;;;;7.52;100.00;101970.28;6198542;28;20046;-69
2021/11/12 02:34:18;;;;;;;20.55;8.27;;;;;;;7.51;100.00;101966.78;6198672;28;20057;-69
2021/11/12 02:37:22;;;;;;;13.93;7.22;;;;;;;7.53;100.00;101967.59;6198150;28;20402;-69
2021/11/12 02:40:24;;;;;;;22.38;8.63;;;;;;;7.51;100.00;101971.16;6174083;28;20054;-68
2021/11/12 02:43:26;;;;;;;13.52;6.72;;;;;;;7.47;100.00;101972.97;6189058;28;20054;-69
2021/11/12 02:46:28;;;;;;;17.73;7.18;;;;;;;7.49;100.00;101975.56;6198333;28;20046;-69
2021/11/12 02:49:29;;;;;;;15.85;6.82;;;;;;;7.49;100.00;101959.84;6198188;28;20406;-68
2021/11/12 02:52:32;;;;;;;22.00;8.10;;;;;;;7.49;100.00;101958.09;6198184;28;20050;-69
2021/11/12 02:55:34;;;;;;;25.25;8.88;;;;;;;7.49;100.00;101963.34;6198098;28;20054;-69
2021/11/12 02:58:38;;;;;;;18.73;7.95;;;;;;;7.54;100.00;101960.63;6197956;28;20449;-69
2021/11/12 03:01:42;;;;;;;16.80;6.53;;;;;;;7.50;100.00;101957.22;6197751;28;20046;-69
2021/11/12 03:04:43;;;;;;;18.58;7.55;;;;;;;7.52;100.00;101957.19;6198040;28;20043;-69
2021/11/12 03:07:46;;;;;;;20.65;7.53;;;;;;;7.50;100.00;101966.84;6197932;28;20057;-69
2021/11/12 03:10:49;;;;;;;23.45;7.70;;;;;;;7.50;100.00;101954.63;6197332;28;20724;-69
2021/11/12 03:13:51;;;;;;;22.58;8.77;;;;;;;7.52;100.00;101952.81;6173704;28;20062;-69
2021/11/12 03:16:53;;;;;;;24.42;9.40;;;;;;;7.50;100.00;101951.16;6173705;28;20054;-69
2021/11/12 03:19:55;;;;;;;22.33;9.75;;;;;;;7.52;100.00;101949.34;6173553;28;20051;-69
2021/11/12 03:23:01;;;;;;;22.13;9.02;;;;;;;7.47;100.00;101941.59;6173310;28;20047;-68
2021/11/12 03:26:13;;;;;;;27.50;9.10;;;;;;;7.49;100.00;101936.31;6173520;28;20157;-68
2021/11/12 04:02:55;;;;;;;24.60;8.50;;;;;;;7.48;100.00;101911.94;6172822;28;20047;-68
2021/11/12 04:06:19;;;;;;;34.67;10.40;;;;;;;7.47;100.00;101906.75;6173309;28;20065;-69
2021/11/12 04:19:35;;;;;;;22.15;9.30;;;;;;;7.47;100.00;101902.38;6197098;28;20133;-69
2021/11/12 05:13:00;;;;;;;24.65;9.15;;;;;;;7.43;100.00;101873.69;6176241;28;20055;-69
2021/11/12 05:46:07;;;;;;;26.85;8.85;;;;;;;7.40;100.00;101838.00;6199671;28;20061;-69
2021/11/12 05:55:48;;;;;;;53.28;10.18;;;;;;;7.38;100.00;101831.97;6199327;28;20050;-69
2021/11/12 05:58:50;;;;;;;25.60;8.02;;;;;;;7.40;100.00;101829.28;6199355;28;20042;-69
2021/11/12 06:01:53;;;;;;;29.30;8.35;;;;;;;7.40;100.00;101824.91;6194473;28;20042;-69
2021/11/12 06:04:54;;;;;;;34.75;9.35;;;;;;;7.44;100.00;101815.25;6199177;28;20050;-69
2021/11/12 06:07:57;;;;;;;38.38;10.65;;;;;;;7.44;100.00;101810.88;6198820;28;20046;-69
2021/11/12 06:10:58;;;;;;;29.50;9.10;;;;;;;7.43;100.00;101811.78;6199092;28;20066;-69
2021/11/12 06:14:00;;;;;;;29.67;8.95;;;;;;;7.41;100.00;101807.50;6198052;28;20046;-69
2021/11/12 06:17:02;;;;;;;32.80;7.63;;;;;;;7.41;100.00;101803.13;6198166;28;20484;-69
2021/11/12 06:20:04;;;;;;;34.83;8.93;;;;;;;7.41;100.00;101821.44;6198477;28;20042;-69
2021/11/12 06:23:07;;;;;;;34.65;8.40;;;;;;;7.41;100.00;101812.75;6198735;28;20076;-69
2021/11/12 06:26:09;;;;;;;35.25;9.57;;;;;;;7.42;100.00;101797.00;6197528;28;20057;-69
2021/11/12 06:29:12;;;;;;;41.33;8.93;;;;;;;7.41;100.00;101791.81;6198576;28;20057;-69
2021/11/12 06:32:13;;;;;;;36.67;7.13;;;;;;;7.40;100.00;101788.31;6198305;28;20129;-68
2021/11/12 06:35:15;;;;;;;35.70;10.82;;;;;;;7.41;100.00;101786.59;6198432;28;20046;-69
2021/11/12 06:38:21;;;;;;;33.80;7.38;;;;;;;7.37;100.00;101786.66;6198279;28;20089;-69
2021/11/12 06:41:52;;;;;;;35.92;9.95;;;;;;;7.33;100.00;101777.16;6198394;28;20417;-69
2021/11/12 06:49:18;;;;;;;22.67;8.75;;;;;;;7.30;100.00;101776.34;6197962;28;20141;-69
2021/11/12 06:51:38;;;;;;;;;;;;;;;7.25;100.00;101768.63;6198010;28;20050;-67
2021/11/12 06:54:41;;;;;;;32.25;7.53;;;;;;;7.22;100.00;101778.28;6197243;28;19922;-70
2021/11/12 06:57:44;;;;;;;30.95;8.07;;;;;;;7.21;100.00;101764.34;6196776;28;20054;-70
2021/11/12 07:00:46;;;;;;;22.88;6.50;;;;;;;7.21;100.00;101772.19;6197775;28;20057;-70
2021/11/12 07:03:47;;;;;;;23.25;7.45;;;;;;;7.22;100.00;101775.66;6197978;28;20050;-70
2021/11/12 07:06:49;;;;;;;23.88;8.88;;;;;;;7.27;100.00;101772.06;6197996;28;20050;-70
2021/11/12 07:09:51;;;;;;;27.05;6.85;;;;;;;7.28;100.00;101770.31;6197351;28;20053;-70
2021/11/12 07:12:53;;;;;;;25.02;6.82;;;;;;;7.28;100.00;101773.78;6197973;28;20054;-70
2021/11/12 07:15:55;;;;;;;25.67;7.28;;;;;;;7.31;100.00;101763.25;6197647;28;20050;-70
2021/11/12 07:18:56;;;;;;;29.55;7.55;;;;;;;7.28;100.00;101747.63;6197846;28;20050;-69
2021/11/12 07:21:58;;;;;;;26.63;8.13;;;;;;;7.22;100.00;101741.69;6197520;28;20047;-70
2021/11/12 07:25:01;;;;;;;22.80;6.50;;;;;;;7.20;100.00;101740.88;6197986;28;20046;-70
2021/11/12 07:28:02;;;;;;;22.60;6.05;;;;;;;7.20;100.00;101739.13;6197585;28;20061;-70
2021/11/12 07:31:04;;;;;;;21.58;6.60;;;;;;;7.20;100.00;101744.34;6197471;28;20410;-70
2021/11/12 07:34:06;;;;;;;22.70;7.38;;;;;;;7.20;100.00;101740.88;6197772;28;20065;-70
2021/11/12 07:37:10;;;;;;;23.45;6.75;;;;;;;7.20;100.00;101731.28;6197089;28;20047;-69
2021/11/12 07:40:23;;;;;;;33.08;9.05;;;;;;;7.20;100.00;101728.66;6197367;28;20046;-69
2021/11/12 07:46:42;;;;;;;29.65;8.82;;;;;;;7.26;100.00;101736.34;6196482;28;20145;-69
2021/11/12 07:49:44;;;;;;;30.58;9.63;;;;;;;7.28;100.00;101731.09;6197262;28;20054;-69
2021/11/12 07:52:46;;;;;;;28.83;9.35;;;;;;;7.30;100.00;101716.22;6197382;28;20449;-69
2021/11/12 07:55:49;;;;;;;30.95;10.52;;;;;;;7.36;100.00;101716.09;6197134;28;20050;-69
2021/11/12 07:58:50;;;;;;;32.17;10.10;;;;;;;7.38;100.00;101707.28;6198498;28;20421;-70
2021/11/12 08:01:52;;;;;;;28.20;9.85;;;;;;;7.41;100.00;101695.91;6187897;28;20505;-69
2021/11/12 08:05:00;;;;;;;33.08;11.43;;;;;;;7.43;100.00;101701.94;6201468;28;20489;-69
2021/11/12 08:08:06;;;;;;;23.50;9.05;;;;;;;7.43;100.00;101695.88;6201752;28;20511;-69
2021/11/12 08:11:11;;;;;;;24.90;9.07;;;;;;;7.43;100.00;101691.50;6201631;28;20054;-69
2021/11/12 08:14:17;;;;;;;23.90;8.43;;;;;;;7.46;100.00;101683.56;6198572;28;20046;-69
2021/11/12 08:17:25;;;;;;;22.98;8.13;;;;;;;7.47;100.00;101679.19;6200718;28;20042;-69
2021/11/12 08:20:33;;;;;;;29.25;8.52;;;;;;;7.47;100.00;101681.81;6200056;28;20513;-69
2021/11/12 08:23:46;;;;;;;17.08;7.30;;;;;;;7.48;100.00;101676.53;6195487;28;20054;-69
2021/11/12 08:27:03;;;;;;;23.20;8.38;;;;;;;7.49;100.00;101677.41;6201117;28;20054;-69
2021/11/12 08:30:17;;;;;;;19.10;7.90;;;;;;;7.51;100.00;101686.06;6199232;28;20125;-69
2021/11/12 08:37:02;;;;;;;16.42;6.07;;;;;;;7.53;100.00;101679.03;6190062;28;20050;-69
2021/11/12 08:40:12;;;;;;;18.45;6.20;;;;;;;7.45;100.00;101670.53;6201027;28;20070;-69
2021/11/12 08:43:17;;;;;;;;;;;;;;;7.41;100.00;101666.28;6201653;28;20051;-69
2021/11/12 08:46:28;;;;;;;11.27;4.88;;;;;;;7.41;100.00;101672.38;6199382;28;19926;-69
2021/11/12 08:49:32;;;;;;;20.98;5.68;;;;;;;7.41;100.00;101664.53;6194258;28;20182;-68
2021/11/12 08:52:33;;;;;;;13.98;6.45;;;;;;;7.41;100.00;101663.69;6200599;28;20105;-69
2021/11/12 08:55:36;;;;;;;15.85;5.63;;;;;;;7.40;100.00;101664.56;6200474;28;20137;-69
2021/11/12 08:58:40;;;;;;;12.95;4.53;;;;;;;7.42;100.00;101671.47;6201066;28;20144;-69
2021/11/12 09:01:42;;;;;;;17.52;4.95;;;;;;;7.49;100.00;101665.16;6200561;28;20054;-69
2021/11/12 09:04:44;;;;;;;10.02;4.88;;;;;;;7.51;100.00;101662.53;6200643;28;20050;-69
2021/11/12 09:07:46;;;;;;;7.50;3.25;;;;;;;7.56;100.00;101653.66;6197505;28;20057;-69
2021/11/12 09:10:47;;;;;;;10.27;4.40;;;;;;;7.67;100.00;101647.28;6199854;28;20057;-69
2021/11/12 09:13:52;;;;;;;14.23;4.47;;;;;;;7.73;100.00;101644.53;6200406;28;20054;-69
2021/11/12 09:16:53;;;;;;;12.10;3.72;;;;;;;7.83;100.00;101646.84;6200385;28;20057;-69
2021/11/12 09:19:57;;;;;;;9.18;3.08;;;;;;;7.87;100.00;101655.47;6199844;28;20077;-70
2021/11/12 09:23:00;;;;;;;5.60;2.55;;;;;;;7.94;100.00;101658.75;6200354;28;20144;-69
2021/11/12 09:26:02;;;;;;;4.88;2.78;;;;;;;7.99;100.00;101649.88;6200283;28;20524;-69
2021/11/12 09:29:06;;;;;;;6.53;2.83;;;;;;;8.01;100.00;101640.22;6196788;28;20649;-70
2021/11/12 09:32:08;;;;;;;9.55;2.70;;;;;;;8.07;100.00;101640.03;6200087;28;20130;-70
2021/11/12 09:35:10;;;;;;;4.05;2.13;;;;;;;8.14;100.00;101630.28;6199961;28;20056;-70
2021/11/12 09:38:12;;;;;;;5.05;2.00;;;;;;;8.18;100.00;101629.28;6199915;28;20092;-70
2021/11/12 09:41:13;;;;;;;3.75;2.17;;;;;;;8.22;100.00;101622.16;6199465;28;20409;-69
2021/11/12 09:44:16;;;;;;;2.42;1.90;;;;;;;8.24;100.00;101621.25;6194167;28;20509;-69
2021/11/12 09:47:23;;;;;;;2.95;1.40;;;;;;;8.23;100.00;101630.00;6197539;28;20054;-70
2021/11/12 09:50:28;;;;;;;3.92;1.65;;;;;;;8.25;100.00;101622.09;6199319;28;20050;-70
2021/11/12 09:53:30;;;;;;;3.60;1.40;;;;;;;8.22;100.00;101617.81;6199758;28;20105;-69
2021/11/12 09:56:33;;;;;;;2.17;1.27;;;;;;;8.27;100.00;101610.69;6199207;28;20046;-70
2021/11/12 09:59:36;;;;;;;2.00;1.27;;;;;;;8.30;100.00;101600.09;6199544;28;20496;-70
2021/11/12 10:02:41;;;;;;;8.32;1.15;;;;;;;8.26;100.00;101590.63;6199098;28;20061;-69
2021/11/12 10:05:46;;;;;;;1.17;0.90;;;;;;;8.28;100.00;101590.59;6199452;28;20054;-70
2021/11/12 10:08:48;;;;;;;1.30;1.02;;;;;;;8.35;100.00;101584.25;6199053;28;20518;-70
2021/11/12 10:11:52;;;;;;;5.40;1.48;;;;;;;8.28;100.00;101583.59;6198620;28;20152;-70
2021/11/12 10:15:07;;;;;;;2.08;1.25;;;;;;;8.16;100.00;101581.31;6199092;28;20058;-70
2021/11/12 10:18:11;;;;;;;1.40;1.02;;;;;;;8.13;100.00;101582.28;6199160;28;20050;-69
2021/11/12 10:21:12;;;;;;;2.78;0.90;;;;;;;8.31;100.00;101578.25;6197988;28;20181;-69
2021/11/12 10:24:17;;;;;;;1.75;1.10;;;;;;;8.57;100.00;101581.84;6199109;28;20136;-69
2021/11/12 10:27:20;;;;;;;0.82;0.60;;;;;;;8.66;100.00;101581.56;6198754;28;20564;-70
2021/11/12 10:30:25;;;;;;;1.23;0.80;;;;;;;8.82;100.00;101577.56;6198587;28;20057;-69
2021/11/12 10:33:36;;;;;;;2.03;1.00;;;;;;;8.78;100.00;101581.16;6198640;28;20437;-70
2021/11/12 10:36:46;;;;;;;1.65;1.02;;;;;;;8.74;100.00;101578.69;6198174;28;20054;-70
2021/11/12 10:39:51;;;;;;;1.38;0.88;;;;;;;8.81;100.00;101561.84;6174162;28;20430;-70
2021/11/12 10:42:55;;;;;;;1.67;0.90;;;;;;;8.75;100.00;101560.28;6174537;28;20050;-70
2021/11/12 10:46:06;;;;;;;1.00;0.70;;;;;;;8.64;100.00;101551.94;6174244;28;20070;-70
2021/11/12 10:49:26;;;;;;;1.17;0.82;;;;;;;8.59;100.00;101549.47;6174201;28;20046;-69
2021/11/12 10:52:29;;;;;;;1.63;0.68;;;;;;;8.50;100.00;101539.28;6174031;28;20394;-69
2021/11/12 10:55:31;;;;;;;1.25;0.85;;;;;;;8.49;100.00;101550.66;6174201;28;20055;-69
2021/11/12 10:58:33;;;;;;;2.42;0.93;;;;;;;8.63;100.00;101539.75;6174309;28;20060;-69
2021/11/12 11:01:37;;;;;;;3.13;0.63;;;;;;;8.80;100.00;101536.56;6173738;28;20536;-69
2021/11/12 11:04:42;;;;;;;1.63;1.08;;;;;;;8.89;100.00;101541.50;6191369;28;20069;-69
2021/11/12 11:07:48;;;;;;;2.83;1.00;;;;;;;9.24;100.00;101532.44;6197946;28;20139;-69
2021/11/12 11:10:52;;;;;;;0.98;0.70;;;;;;;9.57;99.50;101529.50;6197918;28;20058;-70
2021/11/12 11:13:54;;;;;;;1.55;1.08;;;;;;;9.75;99.68;101518.31;6197894;28;20180;-70
2021/11/12 11:16:57;;;;;;;1.00;0.80;;;;;;;9.74;96.90;101506.13;6197913;28;20501;-70
2021/11/12 11:20:08;;;;;;;1.50;0.80;;;;;;;9.60;97.22;101503.16;6195629;28;20050;-70
2021/11/12 11:23:09;;;;;;;1.00;0.65;;;;;;;9.47;97.46;101507.13;6197623;28;20049;-70
2021/11/12 11:26:12;;;;;;;0.98;0.80;;;;;;;9.42;98.64;101509.94;6197439;28;20053;-69
2021/11/12 11:29:15;;;;;;;1.50;1.10;;;;;;;9.39;98.50;101508.25;6197318;28;20046;-70
2021/11/12 11:32:18;;;;;;;2.90;1.23;;;;;;;9.40;96.81;101514.34;6197469;28;20046;-70
2021/11/12 11:35:21;;;;;;;2.67;1.30;;;;;;;9.52;97.35;101506.06;6202889;28;20054;-70
2021/11/12 11:38:27;;;;;;;2.95;1.70;;;;;;;9.67;95.18;101494.13;6202585;28;20131;-70
2021/11/12 11:41:28;;;;;;;2.25;1.10;;;;;;;9.82;95.11;101492.72;6202518;28;20079;-68
2021/11/12 11:44:31;;;;;;;2.38;1.17;;;;;;;9.94;95.07;101486.97;6201389;28;20073;-69
2021/11/12 11:47:34;;;;;;;4.68;1.15;;;;;;;10.02;94.88;101484.06;6202207;28;20429;-67
2021/11/12 11:50:36;;;;;;;6.70;2.30;;;;;;;10.09;93.34;101486.38;6202220;28;20053;-68
2021/11/12 11:53:42;;;;;;;1.48;1.15;;;;;;;10.15;93.13;101478.25;6202124;28;20054;-70
2021/11/12 11:56:45;;;;;;;2.05;1.13;;;;;;;10.13;93.72;101472.22;6196191;28;20088;-70
2021/11/12 11:59:47;;;;;;;2.00;1.30;;;;;;;10.22;94.97;101457.88;6200891;28;20053;-69
2021/11/12 12:03:22;;;;;;;1.42;1.20;;;;;;;10.31;91.61;101461.91;6201085;28;20081;-69
2021/11/12 12:06:24;;;;;;;3.83;1.85;;;;;;;10.31;90.87;101454.91;6198999;28;20057;-71
2021/11/12 12:09:45;;;;;;;2.20;1.60;;;;;;;10.28;91.13;101454.16;6199030;28;20113;-71
2021/11/12 12:12:58;;;;;;;3.38;1.73;;;;;;;10.25;92.79;101456.91;6199460;28;20180;-69
2021/11/12 12:16:07;;;;;;;4.15;1.52;;;;;;;10.14;92.34;101454.69;6201750;28;20057;-69
2021/11/12 12:19:41;;;;;;;3.42;1.60;;;;;;;10.03;91.06;101454.25;6201976;28;20093;-69
2021/11/12 12:33:19;;;;;;;2.58;1.38;;;;;;;10.00;92.73;101423.72;6201344;28;20042;-72
2021/11/12 13:21:09;;;;;;;4.30;2.65;;;;;;;9.30;95.61;101339.88;6341449;28;20406;-69
2021/11/12 13:24:29;;;;;;;5.13;3.08;;;;;;;9.26;96.03;101335.66;6342399;28;20067;-69
2021/11/12 13:27:31;;;;;;;4.53;2.92;;;;;;;9.26;98.22;101336.50;6335498;28;20120;-69
2021/11/12 13:30:32;;;;;;;7.60;3.22;;;;;;;9.21;96.87;101324.50;6316730;28;20487;-69
2021/11/12 13:33:43;;;;;;;4.80;2.50;;;;;;;9.19;98.13;101328.97;6317294;28;20052;-69
2021/11/12 13:36:44;;;;;;;7.40;3.35;;;;;;;9.18;97.11;101322.00;6315808;28;20051;-68
2021/11/12 13:40:01;;;;;;;5.45;2.72;;;;;;;9.11;98.28;101308.25;6317767;28;20055;-68
2021/11/12 13:43:03;;;;;;;6.43;2.90;;;;;;;9.10;98.67;101304.78;6333452;28;20036;-69
2021/11/12 13:46:06;;;;;;;6.97;3.22;;;;;;;9.04;98.90;101297.16;6318797;28;20051;-69
2021/11/12 13:49:08;;;;;;;7.13;2.90;;;;;;;8.99;99.49;101306.09;6316666;28;20044;-69
2021/11/12 13:52:12;;;;;;;7.55;3.83;;;;;;;8.97;99.62;101311.41;6322053;28;20047;-69
2021/11/12 13:55:16;;;;;;;6.05;3.03;;;;;;;8.97;99.43;101313.19;6324670;28;20071;-69
2021/11/12 13:58:20;;;;;;;5.88;3.63;;;;;;;8.97;99.79;101305.31;6324571;28;20093;-69
2021/11/12 14:01:23;;;;;;;10.98;3.17;;;;;;;8.98;100.00;101299.16;6324630;28;20051;-69
2021/11/12 14:04:27;;;;;;;6.07;3.05;;;;;;;8.98;99.97;101286.91;6316441;28;20048;-72
2021/11/12 14:07:29;;;;;;;5.63;3.65;;;;;;;8.96;100.00;101293.13;6299293;28;20055;-69
2021/11/12 14:10:37;;;;;;;7.60;3.78;;;;;;;8.93;100.00;101283.59;6299052;28;20052;-68
2021/11/12 14:13:39;;;;;;;7.10;2.63;;;;;;;8.88;100.00;101283.78;6299457;28;20048;-69
2021/11/12 14:16:50;;;;;;;6.38;3.58;;;;;;;8.84;100.00;101265.59;6299025;28;20140;-69
2021/11/12 14:20:18;;;;;;;6.78;3.50;;;;;;;8.80;100.00;101259.63;6313683;28;20051;-70
2021/11/12 14:23:21;;;;;;;8.80;3.65;;;;;;;8.78;100.00;101253.59;6322471;28;20044;-69
2021/11/12 14:26:27;;;;;;;9.52;4.40;;;;;;;8.77;100.00;101246.66;6320134;28;20505;-69
2021/11/12 14:29:57;;;;;;;7.43;3.38;;;;;;;8.72;100.00;101256.44;6322390;28;20391;-69
2021/11/12 14:33:05;;;;;;;7.35;3.65;;;;;;;8.72;100.00;101258.19;6318516;28;20043;-69
2021/11/12 14:36:24;;;;;;;8.55;4.47;;;;;;;8.66;100.00;101248.81;6320611;28;20796;-70
2021/11/12 14:39:48;;;;;;;8.10;3.88;;;;;;;8.62;100.00;101245.44;6320218;28;20047;-69
2021/11/12 14:43:03;;;;;;;10.65;3.30;;;;;;;8.61;100.00;101248.97;6321426;28;20043;-70
2021/11/12 14:46:16;;;;;;;10.32;3.90;;;;;;;8.58;100.00;101245.59;6323598;28;20391;-70
2021/11/12 14:49:21;;;;;;;9.75;3.55;;;;;;;8.53;100.00;101239.69;6323808;28;20048;-68
2021/11/12 14:52:25;;;;;;;10.70;3.65;;;;;;;8.50;100.00;101235.44;6323343;28;20048;-69
2021/11/12 14:55:27;;;;;;;9.82;4.65;;;;;;;8.42;100.00;101237.47;6323480;28;20054;-69
2021/11/12 14:58:29;;;;;;;9.15;3.75;;;;;;;8.32;100.00;101236.91;6323213;28;20052;-69
2021/11/12 15:01:32;;;;;;;7.10;3.58;;;;;;;8.26;100.00;101229.25;6318384;28;20510;-69
2021/11/12 15:04:33;;;;;;;7.97;4.03;;;;;;;8.19;100.00;101230.41;6297031;28;20066;-69
2021/11/12 15:07:41;;;;;;;6.80;3.67;;;;;;;8.12;100.00;101219.28;6298058;28;20487;-69
2021/11/12 15:10:43;;;;;;;7.10;3.58;;;;;;;8.05;100.00;101225.66;6297762;28;20414;-69
2021/11/12 15:13:46;;;;;;;6.20;3.65;;;;;;;8.01;100.00;101225.84;6297994;28;20129;-69
2021/11/12 15:16:47;;;;;;;10.30;4.50;;;;;;;7.93;100.00;101222.63;6297943;28;20059;-69
2021/11/12 15:19:49;;;;;;;9.63;4.38;;;;;;;7.84;100.00;101222.03;6308473;28;20055;-69
2021/11/12 15:23:09;;;;;;;13.48;5.13;;;;;;;7.78;100.00;101229.25;6318358;28;20076;-69
2021/11/12 15:29:28;;;;;;;9.85;5.18;;;;;;;7.68;100.00;101214.78;6295428;28;20071;-69
2021/11/12 15:32:32;;;;;;;11.73;5.32;;;;;;;7.62;100.00;101203.59;6300351;28;20491;-69
2021/11/12 15:35:34;;;;;;;8.77;4.32;;;;;;;7.55;100.00;101212.56;6322225;28;20451;-69
2021/11/12 15:38:44;;;;;;;11.00;4.00;;;;;;;7.51;100.00;101210.09;6322294;28;20185;-69
2021/11/12 15:45:07;;;;;;;9.98;5.35;;;;;;;7.42;100.00;101208.63;6321809;28;20048;-69
2021/11/12 15:48:10;;;;;;;9.55;3.95;;;;;;;7.35;100.00;101201.88;6322167;28;20044;-69
2021/11/12 15:51:33;;;;;;;10.25;4.90;;;;;;;7.29;100.00;101199.47;6321683;28;20070;-68
2021/11/12 15:54:50;;;;;;;10.70;5.13;;;;;;;7.23;100.00;101194.47;6315646;28;20135;-69
2021/11/12 16:05:19;;;;;;;11.93;4.88;;;;;;;7.00;100.00;101180.38;6296917;28;20048;-68
2021/11/12 16:08:30;;;;;;;12.87;5.80;;;;;;;6.94;100.00;101177.94;6296750;28;20137;-69
2021/11/12 16:11:51;;;;;;;14.80;5.13;;;;;;;6.93;100.00;101171.00;6296331;28;20344;-68
2021/11/12 16:15:01;;;;;;;14.15;5.35;;;;;;;6.94;100.00;101170.09;6296789;28;20139;-69
2021/11/12 16:18:17;;;;;;;10.27;5.15;;;;;;;6.91;100.00;101167.59;6296197;28;20045;-69
2021/11/12 16:24:49;;;;;;;9.38;5.18;;;;;;;6.85;100.00;101157.31;6301925;28;20052;-69
2021/11/12 16:27:53;;;;;;;10.02;5.68;;;;;;;6.80;100.00;101177.50;6318445;28;20050;-69
2021/11/12 16:30:58;;;;;;;12.23;5.50;;;;;;;6.78;100.00;101187.16;6309537;28;20048;-69
2021/11/12 16:34:04;;;;;;;12.93;5.80;;;;;;;6.78;100.00;101195.00;6323112;28;20524;-70
2021/11/12 16:37:06;;;;;;;13.00;5.75;;;;;;;6.68;100.00;101191.81;6299942;28;20060;-69
2021/11/12 16:40:13;;;;;;;10.80;6.13;;;;;;;6.61;100.00;101195.50;6298354;28;20052;-69
2021/11/12 16:43:22;;;;;;;13.05;5.80;;;;;;;6.53;100.00;101198.31;6296339;28;20429;-70
2021/11/12 16:46:33;;;;;;;10.48;5.28;;;;;;;6.51;100.00;101201.88;6296273;28;20130;-70
2021/11/12 16:49:41;;;;;;;13.48;5.28;;;;;;;6.45;100.00;101196.81;6296328;28;20053;-70
2021/11/12 16:52:55;;;;;;;11.35;5.35;;;;;;;6.42;100.00;101191.72;6295930;28;20178;-70
2021/11/12 16:56:34;;;;;;;14.32;5.07;;;;;;;6.38;100.00;101190.94;6296374;28;20105;-70
2021/11/12 16:59:43;;;;;;;9.27;5.22;;;;;;;6.31;100.00;101187.66;6296094;28;20052;-70
2021/11/12 17:02:48;;;;;;;10.20;4.70;;;;;;;6.27;100.00;101183.44;6316378;28;20100;-70
2021/11/12 17:05:53;;;;;;;13.10;6.68;;;;;;;6.21;100.00;101190.56;6321088;28;20040;-69
2021/11/12 17:09:11;;;;;;;11.90;5.45;;;;;;;6.17;100.00;101186.31;6321029;28;20055;-69
2021/11/12 17:15:45;;;;;;;13.13;5.65;;;;;;;6.09;100.00;101178.72;6281638;28;20048;-70
2021/11/12 17:19:03;;;;;;;14.10;4.80;;;;;;;5.98;100.00;101167.72;6319951;28;20170;-69
2021/11/12 17:45:43;;;;;;;12.30;6.03;;;;;;;5.85;100.00;101138.47;6325068;28;20528;-69
2021/11/12 17:48:53;;;;;;;11.57;5.07;;;;;;;5.84;100.00;101126.34;6309529;28;20044;-69
2021/11/12 18:02:00;;;;;;;11.70;5.63;;;;;;;5.93;100.00;101120.03;6313259;28;20110;-68
2021/11/12 18:05:13;;;;;;;15.57;6.30;;;;;;;5.88;100.00;101107.09;6321479;28;20051;-68
2021/11/12 18:12:20;;;;;;;12.00;5.57;;;;;;;5.91;100.00;101095.75;6322931;28;20498;-67
2021/11/12 18:22:10;;;;;;;11.73;5.65;;;;;;;5.82;100.00;101097.69;6323777;28;20083;-69
2021/11/12 21:45:37;;;;;;;14.70;5.95;;;;;;;5.40;100.00;100940.72;6325107;28;20422;-67
2021/11/12 21:48:41;;;;;;;14.77;5.82;;;;;;;5.37;100.00;100959.06;6325123;28;20530;-67
2021/11/12 21:51:45;;;;;;;19.17;7.10;;;;;;;5.35;100.00;100953.88;6322906;28;20051;-67
2021/11/12 21:54:46;;;;;;;13.45;4.95;;;;;;;5.38;100.00;100955.56;6324948;28;20402;-68
2021/11/12 21:57:47;;;;;;;12.48;5.50;;;;;;;5.36;100.00;100954.78;6325095;28;20052;-68
2021/11/12 22:00:50;;;;;;;17.13;6.40;;;;;;;5.33;100.00;100947.88;6323866;28;20048;-68
2021/11/12 22:03:52;;;;;;;17.27;7.45;;;;;;;5.33;100.00;100947.03;6323450;28;20040;-68
2021/11/12 22:06:57;;;;;;;21.45;6.85;;;;;;;5.32;100.00;100942.72;6324480;28;20048;-68
2021/11/12 22:09:58;;;;;;;15.43;7.15;;;;;;;5.35;100.00;100945.22;6302312;28;20052;-68
2021/11/12 22:12:59;;;;;;;17.73;6.90;;;;;;;5.35;100.00;100937.41;6299493;28;20044;-68